WetterOnline ( https://www.wetteronline.de )

Wetter aktuell Mühldorf

Aktuelles Wetter: Mühldorf am Inn (410m)

6-stündlich | Neueste Meldungen
Ortszeit Temperatur Wetter
So, 09.05. 8:00 9.8° C wolkenlos
So, 09.05. 2:00 8.0° C wolkenlos
Sa, 08.05. 20:00 13.9° C leicht bewölkt
Sa, 08.05. 14:00 14.8° C wolkig
Sa, 08.05. 8:00 3.6° C leicht bewölkt
Sa, 08.05. 2:00 -0.4° C wolkenlos
Fr, 07.05. 20:00 8.8° C wolkenlos
Fr, 07.05. 14:00 9.3° C bedeckt
Ortszeit Temperatur Wetter
So, 09.05. 13:30 24.1° C wolkenlos
So, 09.05. 13:20 24.1° C wolkenlos
So, 09.05. 13:10 24.2° C wolkenlos
So, 09.05. 13:00 23.2° C leicht bewölkt
So, 09.05. 12:50 23.2° C leicht bewölkt
So, 09.05. 12:40 22.8° C leicht bewölkt
So, 09.05. 12:30 21.9° C leicht bewölkt
So, 09.05. 12:00 20.6° C leicht bewölkt
So, 09.05. 11:30 19.6° C leicht bewölkt
So, 09.05. 11:00 18.8° C fast wolkenlos
So, 09.05. 10:30 17.0° C leicht bewölkt
Ortszeit Relative Feuchte Sichtweite
So, 09.05. 8:00 74% 35 km
So, 09.05. 2:00 80% 50 km
Sa, 08.05. 20:00 54% >70 km
Sa, 08.05. 14:00 46% >70 km
Sa, 08.05. 8:00 84% 21 km
Sa, 08.05. 2:00 97% 21 km
Fr, 07.05. 20:00 58% >70 km
Fr, 07.05. 14:00 74% 50 km
Ortszeit Relative Feuchte Sichtweite
So, 09.05. 13:30 40% 65 km
So, 09.05. 13:20 40% -
So, 09.05. 13:10 44% -
So, 09.05. 13:00 42% 50 km
So, 09.05. 12:50 42% -
So, 09.05. 12:40 43% -
So, 09.05. 12:30 44% 45 km
So, 09.05. 12:00 49% 55 km
So, 09.05. 11:30 50% 40 km
So, 09.05. 11:00 54% 45 km
So, 09.05. 10:30 56% 55 km
Ortszeit Niederschlagsmenge Niederschlagsart
So, 09.05. 8:00 0.0 l/m2 in 12 Std. -
So, 09.05. 2:00 0.0 l/m2 in 6 Std. -
Sa, 08.05. 20:00 0.0 l/m2 in 12 Std. -
Sa, 08.05. 14:00 0.0 l/m2 in 6 Std. -
Sa, 08.05. 8:00 0.0 l/m2 in 12 Std. -
Sa, 08.05. 2:00 0.0 l/m2 in 6 Std. -
Fr, 07.05. 20:00 6 l/m2 in 12 Std. Regen
Fr, 07.05. 14:00 4 l/m2 in 6 Std. Regen
Ortszeit Niederschlagsmenge Niederschlagsart
So, 09.05. 13:30 0.0 l/m2 in 1 Std. -
So, 09.05. 13:20 keine Meldung -
So, 09.05. 13:10 keine Meldung -
So, 09.05. 13:00 0.0 l/m2 in 1 Std. -
So, 09.05. 12:50 keine Meldung -
So, 09.05. 12:40 keine Meldung -
So, 09.05. 12:30 0.0 l/m2 in 1 Std. -
So, 09.05. 12:00 0.0 l/m2 in 1 Std. -
So, 09.05. 11:30 0.0 l/m2 in 1 Std. -
So, 09.05. 11:00 0.0 l/m2 in 1 Std. -
So, 09.05. 10:30 0.0 l/m2 in 1 Std. -
Ortszeit Stärke Spitze Richtung
km/h Bft. km/h Grad Sektor
So, 09.05. 8:00 9 2 13 110° O
So, 09.05. 2:00 7 2 14 90° O
Sa, 08.05. 20:00 9 2 19 90° O
Sa, 08.05. 14:00 7 2 18 100° O
Sa, 08.05. 8:00 4 1 7 70° O
Sa, 08.05. 2:00 2 1 26 330° NW
Fr, 07.05. 20:00 18 3 54 300° NW
Fr, 07.05. 14:00 25 4 40 270° W
Ortszeit Stärke Spitze Richtung
km/h Bft. km/h Grad Sektor
So, 09.05. 13:30 - - 22 - -
So, 09.05. 13:20 - - - - -
So, 09.05. 13:10 14 3 - 110° O
So, 09.05. 13:00 15 3 24 110° O
So, 09.05. 12:50 15 3 - 110° O
So, 09.05. 12:40 13 3 - 100° O
So, 09.05. 12:30 14 3 22 100° O
So, 09.05. 12:00 13 3 22 100° O
So, 09.05. 11:30 13 3 19 90° O
So, 09.05. 11:00 13 3 17 90° O
So, 09.05. 10:30 11 2 17 80° O
Ortszeit Untergrenze Bedeckung Gattung
total tief tief mittel hoch
So, 09.05. 8:00 - 0/8 0/8 - - -
So, 09.05. 2:00 - 0/8 0/8 - - -
Sa, 08.05. 20:00 3000 m 3/8 2/8 - - -
Sa, 08.05. 14:00 3900 m 8/8 8/8 - - -
Sa, 08.05. 8:00 9000 m 6/8 0/8 - - -
Sa, 08.05. 2:00 - 0/8 0/8 - - -
Fr, 07.05. 20:00 - 0/8 0/8 - - -
Fr, 07.05. 14:00 630 m 8/8 8/8 - - -
Ortszeit Bedeckungsgrad in Achtel und Wolkenuntergrenze
So, 09.05. 13:30 keine Wolken
So, 09.05. 13:20 keine Wolken
So, 09.05. 13:10 keine Wolken
So, 09.05. 13:00 3(10500m)
So, 09.05. 12:50 3(10500m)
So, 09.05. 12:40 6(10500m)
So, 09.05. 12:30 2(10500m)
So, 09.05. 12:00 3(10500m)
So, 09.05. 11:30 6(10500m)
So, 09.05. 11:00 1(10500m)
So, 09.05. 10:30 1(9000m) 3(10500m)
Ortszeit Luftdruck NN (hPa) Tendenz (hPa in 3 Std.)
So, 09.05. 8:00 1016 - 0,1
So, 09.05. 2:00 1017 - 0,2
Sa, 08.05. 20:00 1016 - 1,0
Sa, 08.05. 14:00 1019 - 1,3
Sa, 08.05. 8:00 1023 + 0,1
Sa, 08.05. 2:00 1024 + 0,7
Fr, 07.05. 20:00 1019 + 1,9
Fr, 07.05. 14:00 1014 + 2,7
Ortszeit Luftdruck NN (hPa) Tendenz (hPa in 3 Std.)
So, 09.05. 13:30 1011 - 2,0
So, 09.05. 13:20 1011 keine Meldung
So, 09.05. 13:10 1011 keine Meldung
So, 09.05. 13:00 1011 - 1,5
So, 09.05. 12:50 1011 keine Meldung
So, 09.05. 12:40 1011 keine Meldung
So, 09.05. 12:30 1012 - 1,4
So, 09.05. 12:00 1013 - 0,9
So, 09.05. 11:30 1013 - 0,9
So, 09.05. 11:00 1014 - 0,7
So, 09.05. 10:30 1014 - 0,6
Ortszeit Schneehöhe (cm)
So, 09.05. 8:00 0
So, 09.05. 2:00 0
Sa, 08.05. 20:00 0
Sa, 08.05. 14:00 0
Sa, 08.05. 8:00 0
Sa, 08.05. 2:00 0
Fr, 07.05. 20:00 0
Fr, 07.05. 14:00 0
Ortszeit Schneehöhe (cm)
So, 09.05. 13:30 0
So, 09.05. 13:20 0
So, 09.05. 13:10 0
So, 09.05. 13:00 0
So, 09.05. 12:50 0
So, 09.05. 12:40 0
So, 09.05. 12:30 0
So, 09.05. 12:00 0
So, 09.05. 11:30 0
So, 09.05. 11:00 0
So, 09.05. 10:30 0
Link zu dieser Seite / Seite empfehlen

Das Wetter in ...